Time;durP1;ratioP1;P1;durP2;ratioP2;P2;SDS_P1;SDS_P2;PMS_P1;PMS_P2;Temp;Humidity;BMP_temperature;BMP_pressure;BME280_temperature;BME280_humidity;BME280_pressure;Samples;Min_cycle;Max_cycle;Signal;HPM_P1;HPM_P2
2022/03/06 18:18:40;;;;;;;10.65;5.10;;;;;;;5.24;41.29;99556.15;4569191;76;63288;-77
2022/03/06 18:24:42;;;;;;;10.35;5.33;;;;;;;7.83;34.90;99551.37;4529729;77;43052;-77
2022/03/06 18:31:18;;;;;;;8.70;4.22;;;;;;;7.91;34.97;99547.19;4532847;77;28464;-74
2022/03/06 18:37:20;;;;;;;11.35;5.33;;;;;;;7.76;34.76;99550.02;4538844;77;43226;-73
2022/03/06 18:43:21;;;;;;;10.75;5.35;;;;;;;8.07;34.63;99543.83;4519138;77;28507;-76
2022/03/06 18:49:23;;;;;;;10.68;5.75;;;;;;;8.68;33.79;99563.53;4514645;77;43272;-74
2022/03/06 18:55:25;;;;;;;9.85;5.72;;;;;;;8.33;34.15;99563.14;4475444;77;43014;-76
2022/03/06 19:01:28;;;;;;;10.80;5.60;;;;;;;8.14;34.58;99558.06;4526982;77;28520;-76
2022/03/06 19:07:29;;;;;;;10.28;5.78;;;;;;;8.07;34.63;99562.07;4508252;77;43273;-81
2022/03/06 19:13:31;;;;;;;13.62;6.53;;;;;;;7.63;35.18;99552.13;4380202;80;43974;-78
2022/03/06 19:19:34;;;;;;;13.30;7.28;;;;;;;8.35;34.24;99553.58;4366515;80;43976;-72
2022/03/06 19:25:35;;;;;;;14.80;7.05;;;;;;;8.18;34.55;99551.27;4442753;78;43978;-75
2022/03/06 19:31:37;;;;;;;13.00;6.92;;;;;;;7.89;34.78;99555.11;4425484;78;43990;-76
2022/03/06 19:37:41;;;;;;;12.65;6.95;;;;;;;7.76;34.56;99556.72;4353817;81;43958;-78
2022/03/06 19:43:44;;;;;;;13.88;7.95;;;;;;;7.44;35.10;99552.31;4350273;80;43948;-76
2022/03/06 19:49:48;;;;;;;13.08;7.22;;;;;;;7.63;34.25;99548.61;4350267;80;44023;-74
2022/03/06 19:55:51;;;;;;;14.23;7.67;;;;;;;7.56;34.44;99540.55;4345400;81;28481;-77
2022/03/06 20:01:53;;;;;;;14.30;8.00;;;;;;;8.25;33.61;99544.58;4345362;81;43950;-77
2022/03/06 20:07:55;;;;;;;16.37;7.65;;;;;;;8.55;33.28;99548.25;4357189;80;43969;-76
2022/03/06 20:13:57;;;;;;;11.90;7.33;;;;;;;7.79;33.62;99550.95;4347812;80;43605;-73
2022/03/06 20:19:59;;;;;;;10.75;6.08;;;;;;;7.99;33.51;99560.06;4321334;81;43225;-74
2022/03/06 20:26:00;;;;;;;13.05;7.30;;;;;;;8.16;32.63;99561.36;4309993;81;44049;-75
2022/03/06 20:32:02;;;;;;;13.03;7.80;;;;;;;6.97;34.36;99570.74;4319831;81;43942;-75
2022/03/06 20:38:03;;;;;;;13.55;8.38;;;;;;;7.38;33.80;99567.31;4314100;81;43978;-78
2022/03/06 20:44:07;;;;;;;15.80;8.43;;;;;;;6.90;34.50;99576.05;4311383;81;43943;-76
2022/03/06 20:50:09;;;;;;;14.60;8.05;;;;;;;7.62;33.70;99575.89;4315075;81;43947;-78
2022/03/06 20:56:11;;;;;;;13.43;7.75;;;;;;;7.57;33.66;99572.16;4287013;81;43943;-74
2022/03/06 21:02:20;;;;;;;14.33;8.05;;;;;;;7.94;33.16;99566.02;4312234;81;28476;-76
2022/03/06 21:08:18;;;;;;;15.00;8.13;;;;;;;7.84;33.46;99570.43;4310941;80;28536;-73
2022/03/06 21:14:19;;;;;;;16.42;9.85;;;;;;;7.97;33.41;99572.34;4298774;81;44237;-75
2022/03/06 21:20:21;;;;;;;17.50;9.83;;;;;;;7.16;34.89;99569.75;4358393;81;44000;-75
2022/03/06 21:26:22;;;;;;;18.80;10.65;;;;;;;7.76;34.53;99567.42;4368975;80;44473;-77
2022/03/06 21:32:27;;;;;;;21.23;11.00;;;;;;;7.41;34.99;99574.66;4375943;81;44547;-75
2022/03/06 21:38:28;;;;;;;19.60;9.40;;;;;;;8.48;34.05;99571.50;4374576;81;28493;-76
2022/03/06 21:44:30;;;;;;;16.37;9.50;;;;;;;7.42;34.67;99577.11;4365847;79;43926;-75
2022/03/06 21:50:31;;;;;;;15.03;8.48;;;;;;;7.44;35.17;99584.95;4364216;79;28541;-76
2022/03/06 21:56:32;;;;;;;19.80;9.78;;;;;;;7.91;34.32;99574.47;4374195;81;44222;-75
2022/03/06 22:02:34;;;;;;;16.77;9.15;;;;;;;7.56;34.48;99581.22;4368672;81;28566;-74
2022/03/06 22:08:37;;;;;;;20.90;10.20;;;;;;;7.81;33.77;99574.33;4368640;80;44488;-74
2022/03/06 22:14:39;;;;;;;20.45;10.15;;;;;;;7.49;34.16;99577.98;4372928;81;44506;-76
2022/03/06 22:20:40;;;;;;;19.67;9.93;;;;;;;8.06;33.43;99575.13;4392712;81;44498;-76
2022/03/06 22:26:42;;;;;;;16.40;8.43;;;;;;;7.89;33.53;99583.22;4397147;80;44063;-75
2022/03/06 22:32:43;;;;;;;18.12;9.50;;;;;;;7.37;34.17;99583.58;4379286;80;43996;-76
2022/03/06 22:38:45;;;;;;;17.00;9.03;;;;;;;7.22;34.34;99580.48;4446055;78;43973;-75
2022/03/06 22:44:46;;;;;;;17.55;9.53;;;;;;;7.96;33.06;99570.66;4432469;78;43949;-74
2022/03/06 22:50:48;;;;;;;17.50;8.45;;;;;;;7.94;33.17;99572.22;4441208;78;43941;-75
2022/03/06 22:56:50;;;;;;;15.65;8.83;;;;;;;7.28;33.74;99574.05;4408671;78;43961;-75
2022/03/06 23:02:51;;;;;;;13.18;7.78;;;;;;;7.57;32.86;99566.81;4440746;78;44008;-75
2022/03/06 23:08:53;;;;;;;14.75;7.90;;;;;;;8.10;32.03;99560.81;4436690;78;43926;-74
2022/03/06 23:14:54;;;;;;;16.62;8.50;;;;;;;8.37;31.97;99560.36;4335840;80;43946;-75
2022/03/06 23:20:56;;;;;;;15.08;8.55;;;;;;;8.76;31.59;99559.81;4435466;78;28543;-75
2022/03/06 23:26:57;;;;;;;20.50;11.10;;;;;;;7.78;33.01;99560.01;4346437;80;28519;-74
2022/03/06 23:32:58;;;;;;;20.82;10.20;;;;;;;7.82;35.81;99560.44;4357227;80;44555;-75
2022/03/06 23:39:00;;;;;;;22.67;11.70;;;;;;;7.77;36.49;99558.86;4380650;80;44459;-75
2022/03/06 23:45:04;;;;;;;23.90;11.53;;;;;;;7.93;38.00;99561.70;4373054;80;43614;-75
2022/03/06 23:51:06;;;;;;;22.93;11.88;;;;;;;6.86;40.73;99571.27;4378113;80;43705;-75
2022/03/06 23:57:08;;;;;;;24.25;12.00;;;;;;;7.16;41.52;99567.08;4366774;80;43268;-75
